This is the latest recevied weather packets stored in our database for station/object PI8ANH-13. If no packets are shown the sender has not sent any weather packets the latest 10 day(s).
| Time | Temp. | Humidity | Pressure | Rain* | Wind** | Luminosity | Snow |
|---|---|---|---|---|---|---|---|
| 1787736597 | 20° C | 64% | 1017 hPa | - | - | - | - |
| 1787735698 | 20° C | 64% | 1017 hPa | - | - | - | - |
| 1787734798 | 20° C | 60% | 1016 hPa | - | - | - | - |
| 1787733898 | 20° C | 60% | 1016 hPa | - | - | - | - |
| 1787732998 | 20° C | 60% | 1016 hPa | - | - | - | - |
| 1787732098 | 20° C | 60% | 1016 hPa | - | - | - | - |
| 1787731197 | 18.89° C | 64% | 1016 hPa | - | - | - | - |
| 1787730297 | 18.89° C | 64% | 1016 hPa | - | - | - | - |
| 1787729398 | 17.78° C | 68% | 1016 hPa | - | - | - | - |
| 1787728498 | 17.78° C | 68% | 1016 hPa | - | - | - | - |
| 1787727598 | 17.22° C | 72% | 1016 hPa | - | - | - | - |
| 1787726698 | 17.22° C | 72% | 1016 hPa | - | - | - | - |
| 1787725798 | 15° C | 82% | 1016 hPa | - | - | - | - |
| 1787724898 | 15° C | 82% | 1016 hPa | - | - | - | - |
| 1787723998 | 13.89° C | 82% | 1016 hPa | - | - | - | - |
| 1787723098 | 13.89° C | 82% | 1016 hPa | - | - | - | - |
| 1787722198 | 12.78° C | 88% | 1016 hPa | - | - | - | - |
| 1787721298 | 12.78° C | 88% | 1016 hPa | - | - | - | - |
| 1787720397 | 13.89° C | 82% | 1016 hPa | - | - | - | - |
| 1787719498 | 13.89° C | 82% | 1016 hPa | - | - | - | - |
| 1787718598 | 15° C | 77% | 1016 hPa | - | - | - | - |
| 1787717697 | 15° C | 77% | 1016 hPa | - | - | - | - |
| 1787716798 | 13.89° C | 82% | 1016 hPa | - | - | - | - |
| 1787715898 | 13.89° C | 82% | 1016 hPa | - | - | - | - |
| 1787714998 | 13.89° C | 82% | 1016 hPa | - | - | - | - |
* Rain since midnight (hover to see other rain measurements)
** Current wind speed in m/s (hover to see current wind gust speed)